createdAt,value
2023-02-24T00:02:22.366Z,87.42
2023-02-24T00:04:53.347Z,87.52
2023-02-24T00:07:24.050Z,87.19
2023-02-24T00:09:58.975Z,87.35
2023-02-24T00:12:30.599Z,87.37
2023-02-24T00:15:03.038Z,87.56
2023-02-24T00:17:36.642Z,87.47
2023-02-24T00:20:11.021Z,87.21
2023-02-24T00:22:41.938Z,87.16
2023-02-24T00:25:14.582Z,87.12
2023-02-24T00:27:45.037Z,87.01
2023-02-24T00:30:17.540Z,87.06
2023-02-24T00:32:48.096Z,86.77
2023-02-24T00:35:19.058Z,86.98
2023-02-24T00:37:51.317Z,86.39
2023-02-24T00:40:23.404Z,86.32
2023-02-24T00:42:54.179Z,86.07
2023-02-24T00:45:24.648Z,85.42
2023-02-24T00:47:56.836Z,85.69
2023-02-24T00:50:27.444Z,85.24
2023-02-24T00:52:59.170Z,85.00
2023-02-24T00:55:31.351Z,83.94
2023-02-24T00:58:02.080Z,83.51
2023-02-24T01:00:35.406Z,83.43
2023-02-24T01:03:06.324Z,83.34
2023-02-24T01:05:37.800Z,83.18
2023-02-24T01:08:09.452Z,82.88
2023-02-24T01:10:40.302Z,83.34
2023-02-24T01:13:10.928Z,83.15
2023-02-24T01:15:42.262Z,82.96
2023-02-24T01:18:12.909Z,82.75
2023-02-24T01:20:44.788Z,82.07
2023-02-24T01:23:17.771Z,82.48
2023-02-24T01:25:50.540Z,81.58
2023-02-24T01:28:22.824Z,80.84
2023-02-24T01:30:54.196Z,80.71
2023-02-24T01:33:25.001Z,80.50
2023-02-24T01:35:57.499Z,80.78
2023-02-24T01:38:28.183Z,81.39
2023-02-24T01:40:59.729Z,81.92
2023-02-24T01:43:32.012Z,81.37
2023-02-24T01:46:02.398Z,81.18
2023-02-24T01:48:33.389Z,80.49
2023-02-24T01:51:07.240Z,80.48
2023-02-24T01:53:38.576Z,80.36
2023-02-24T01:56:12.246Z,79.95
2023-02-24T01:58:43.138Z,80.20
2023-02-24T02:01:19.718Z,79.91
2023-02-24T02:03:51.753Z,80.23
2023-02-24T02:06:22.398Z,79.97
2023-02-24T02:08:54.143Z,79.85
2023-02-24T02:11:26.104Z,79.80
2023-02-24T02:13:56.892Z,79.28
2023-02-24T02:16:48.280Z,79.04
2023-02-24T02:19:46.103Z,79.65
2023-02-24T02:22:52.908Z,79.42
2023-02-24T02:25:28.565Z,79.53
2023-02-24T02:28:17.968Z,79.43
2023-02-24T02:30:53.257Z,77.73
2023-02-24T02:33:49.204Z,78.74
2023-02-24T02:36:32.819Z,76.85
2023-02-24T02:39:15.244Z,76.01
2023-02-24T02:41:48.767Z,76.35
2023-02-24T02:44:38.854Z,75.92
2023-02-24T02:47:27.924Z,75.86
2023-02-24T02:50:05.953Z,75.67
2023-02-24T02:52:45.859Z,75.09
2023-02-24T02:55:25.370Z,75.90
2023-02-24T02:57:58.227Z,75.91
2023-02-24T03:00:33.847Z,75.89
2023-02-24T03:03:10.475Z,75.67
2023-02-24T03:05:49.988Z,75.63
2023-02-24T03:08:25.760Z,75.34
2023-02-24T03:11:00.387Z,75.33
2023-02-24T03:13:33.824Z,75.66
2023-02-24T03:16:06.565Z,76.14
2023-02-24T03:18:40.252Z,75.93
2023-02-24T03:21:22.931Z,76.18
2023-02-24T03:23:54.409Z,76.02
2023-02-24T03:26:35.312Z,76.14
2023-02-24T03:29:16.356Z,76.14
2023-02-24T03:31:56.082Z,76.15
2023-02-24T03:34:32.579Z,76.23
2023-02-24T03:37:03.140Z,75.97
2023-02-24T03:39:33.937Z,76.21
2023-02-24T03:42:07.549Z,76.11
2023-02-24T03:44:38.041Z,76.42
2023-02-24T03:47:09.839Z,76.20
2023-02-24T03:49:44.288Z,76.14
2023-02-24T03:52:38.784Z,76.06
2023-02-24T03:55:24.149Z,76.02
2023-02-24T03:58:06.498Z,76.34
2023-02-24T04:00:44.694Z,76.64
2023-02-24T04:03:25.655Z,76.06
2023-02-24T04:06:08.453Z,76.64
2023-02-24T04:08:45.138Z,76.52
2023-02-24T04:11:27.480Z,76.07
2023-02-24T04:14:05.749Z,75.42
2023-02-24T04:16:45.169Z,75.78
2023-02-24T04:19:18.565Z,75.60
2023-02-24T04:21:51.163Z,76.39
2023-02-24T04:24:24.602Z,76.02
2023-02-24T04:27:00.283Z,76.13
2023-02-24T04:29:35.402Z,75.93
2023-02-24T04:32:14.281Z,75.79
2023-02-24T04:34:47.512Z,75.63
2023-02-24T04:37:21.020Z,75.85
2023-02-24T04:39:51.603Z,75.90
2023-02-24T04:42:22.182Z,75.44
2023-02-24T04:44:53.790Z,75.72
2023-02-24T04:47:25.264Z,74.95
2023-02-24T04:49:56.044Z,75.34
2023-02-24T04:52:26.658Z,75.56
2023-02-24T04:54:58.607Z,75.20
2023-02-24T04:57:29.061Z,74.58
2023-02-24T04:59:59.746Z,75.23
2023-02-24T05:02:31.666Z,74.95
2023-02-24T05:05:02.402Z,74.41
2023-02-24T05:07:34.113Z,74.09
2023-02-24T05:10:04.824Z,74.32
2023-02-24T05:12:35.348Z,74.65
2023-02-24T05:15:08.234Z,74.75
2023-02-24T05:17:40.545Z,74.79
2023-02-24T05:20:30.158Z,75.03
2023-02-24T05:23:02.992Z,74.63
2023-02-24T05:25:35.420Z,74.67
2023-02-24T05:28:08.914Z,74.52
2023-02-24T05:30:39.346Z,74.21
2023-02-24T05:33:11.525Z,74.48
2023-02-24T05:35:45.550Z,74.48
2023-02-24T05:38:17.989Z,74.83
2023-02-24T05:40:51.048Z,74.53
2023-02-24T05:43:21.566Z,74.95
2023-02-24T05:45:52.064Z,74.66
2023-02-24T05:48:23.595Z,75.27
2023-02-24T05:50:55.133Z,75.53
2023-02-24T05:53:25.675Z,75.20
2023-02-24T05:55:57.426Z,74.69
2023-02-24T05:58:32.400Z,74.82
2023-02-24T06:01:07.113Z,74.58
2023-02-24T06:03:39.171Z,74.52
2023-02-24T06:06:11.930Z,74.67
2023-02-24T06:08:42.756Z,74.10
2023-02-24T06:11:13.432Z,74.24
2023-02-24T06:13:53.426Z,74.98
2023-02-24T06:16:27.296Z,75.04
2023-02-24T06:18:58.085Z,75.18
2023-02-24T06:21:29.999Z,75.18
2023-02-24T06:24:00.988Z,75.00
2023-02-24T06:26:33.078Z,75.69
2023-02-24T06:29:05.864Z,75.65
2023-02-24T06:31:36.540Z,75.47
2023-02-24T06:34:07.284Z,75.04
2023-02-24T06:36:38.936Z,75.32
2023-02-24T06:39:10.312Z,74.91
2023-02-24T06:41:42.663Z,75.09
2023-02-24T06:44:14.828Z,74.90
2023-02-24T06:46:46.176Z,74.10
2023-02-24T06:49:17.022Z,74.08
2023-02-24T06:51:49.323Z,74.05
2023-02-24T06:54:24.686Z,73.66
2023-02-24T06:56:55.896Z,73.88
2023-02-24T06:59:30.134Z,74.59
2023-02-24T07:02:03.693Z,73.18
2023-02-24T07:04:35.915Z,73.23
2023-02-24T07:07:09.262Z,73.73
2023-02-24T07:09:41.659Z,72.93
2023-02-24T07:12:12.531Z,72.09
2023-02-24T07:14:46.406Z,72.13
2023-02-24T07:17:23.213Z,72.05
2023-02-24T07:19:55.012Z,71.83
2023-02-24T07:22:27.071Z,72.10
2023-02-24T07:24:59.157Z,71.15
2023-02-24T07:27:30.078Z,70.60
2023-02-24T07:30:02.491Z,70.75
2023-02-24T07:32:33.552Z,70.57
2023-02-24T07:35:04.631Z,70.43
2023-02-24T07:37:35.265Z,70.01
2023-02-24T07:40:08.098Z,69.67
2023-02-24T07:42:41.688Z,68.34
2023-02-24T07:45:13.321Z,67.41
2023-02-24T07:47:44.232Z,67.65
2023-02-24T07:50:17.828Z,67.00
2023-02-24T07:52:50.557Z,67.07
2023-02-24T07:55:23.229Z,66.33
2023-02-24T07:57:54.783Z,65.54
2023-02-24T08:00:39.311Z,65.78
2023-02-24T08:03:11.119Z,65.75
2023-02-24T08:05:44.876Z,65.43
2023-02-24T08:08:18.414Z,65.26
2023-02-24T08:10:49.099Z,65.57
2023-02-24T08:13:20.597Z,65.56
2023-02-24T08:15:53.207Z,66.31
2023-02-24T08:18:28.637Z,66.03
2023-02-24T08:21:04.383Z,65.73
2023-02-24T08:23:39.631Z,66.09
2023-02-24T08:26:12.957Z,66.30
2023-02-24T08:28:50.049Z,66.32
2023-02-24T08:31:22.607Z,66.55
2023-02-24T08:33:56.477Z,66.16
2023-02-24T08:36:27.734Z,66.29
2023-02-24T08:39:01.074Z,66.14
2023-02-24T08:41:49.778Z,66.10
2023-02-24T08:44:23.374Z,66.00
2023-02-24T08:46:55.816Z,65.01
2023-02-24T08:49:28.344Z,64.05
2023-02-24T08:52:01.751Z,64.30
2023-02-24T08:54:32.520Z,64.20
2023-02-24T08:57:10.082Z,64.30
2023-02-24T08:59:43.803Z,65.20
2023-02-24T09:02:22.676Z,65.00
2023-02-24T09:05:05.540Z,65.06
2023-02-24T09:07:41.007Z,64.92
2023-02-24T09:10:16.760Z,64.57
2023-02-24T09:12:51.172Z,64.88
2023-02-24T09:15:24.837Z,65.20
2023-02-24T09:17:56.940Z,65.30
2023-02-24T09:20:29.176Z,65.45
2023-02-24T09:23:07.993Z,65.45
2023-02-24T09:25:45.203Z,65.62
2023-02-24T09:28:19.113Z,65.85
2023-02-24T09:30:54.041Z,65.74
2023-02-24T09:33:42.050Z,65.56
2023-02-24T09:36:17.016Z,65.36
2023-02-24T09:39:03.585Z,64.60
2023-02-24T09:41:56.622Z,64.56
2023-02-24T09:44:38.855Z,64.28
2023-02-24T09:47:19.263Z,64.26
2023-02-24T09:49:59.285Z,64.27
2023-02-24T09:52:36.297Z,64.61
2023-02-24T09:55:29.011Z,64.28
2023-02-24T09:58:18.978Z,64.00
2023-02-24T10:01:25.727Z,63.67
2023-02-24T10:04:18.601Z,63.63
2023-02-24T10:06:43.749Z,63.58
2023-02-24T10:09:27.728Z,63.30
2023-02-24T10:12:02.833Z,63.27
2023-02-24T10:14:50.818Z,63.35
2023-02-24T10:17:29.423Z,63.16
2023-02-24T10:20:07.580Z,63.18
2023-02-24T10:22:53.572Z,63.09
2023-02-24T10:25:31.805Z,62.47
2023-02-24T10:28:08.030Z,61.87
2023-02-24T10:31:01.840Z,62.53
2023-02-24T10:33:42.573Z,62.38
2023-02-24T10:36:17.389Z,62.12
2023-02-24T10:38:49.565Z,62.19
2023-02-24T10:41:23.644Z,62.63
2023-02-24T10:44:01.403Z,62.58
2023-02-24T10:46:42.152Z,62.62
2023-02-24T10:49:13.149Z,63.99
2023-02-24T10:51:49.538Z,66.27
2023-02-24T10:54:36.101Z,69.12
2023-02-24T10:57:10.429Z,70.38
2023-02-24T11:00:01.660Z,70.49
2023-02-24T11:02:37.333Z,72.48
2023-02-24T11:05:32.694Z,73.68
2023-02-24T11:08:41.023Z,75.74
2023-02-24T11:11:25.524Z,77.78
2023-02-24T11:14:17.231Z,78.68
2023-02-24T11:17:23.729Z,81.82
2023-02-24T11:20:04.661Z,73.13
2023-02-24T11:22:39.389Z,70.62
2023-02-24T11:25:28.425Z,69.29
2023-02-24T11:27:59.457Z,68.02
2023-02-24T11:30:37.665Z,73.68
2023-02-24T11:33:28.157Z,76.78
2023-02-24T11:36:05.496Z,78.12
2023-02-24T11:38:45.507Z,80.07
2023-02-24T11:41:22.393Z,80.93
2023-02-24T11:44:00.520Z,81.92
2023-02-24T11:46:38.063Z,82.92
2023-02-24T11:49:12.479Z,82.73
2023-02-24T11:51:46.031Z,82.81
2023-02-24T11:54:19.338Z,83.32
2023-02-24T11:56:54.347Z,83.24
2023-02-24T12:00:04.907Z,83.27
2023-02-24T12:03:02.252Z,82.78
2023-02-24T12:05:42.084Z,83.07
2023-02-24T12:08:31.107Z,83.41
2023-02-24T12:11:09.880Z,83.65
2023-02-24T12:13:54.023Z,83.97
2023-02-24T12:16:33.862Z,83.69
2023-02-24T12:19:10.261Z,83.34
2023-02-24T12:21:49.281Z,82.52
2023-02-24T12:24:21.494Z,83.84
2023-02-24T12:27:03.504Z,83.57
2023-02-24T12:29:56.992Z,83.39
2023-02-24T12:32:52.496Z,83.80
2023-02-24T12:35:46.990Z,82.92
2023-02-24T12:38:41.607Z,83.47
2023-02-24T12:41:36.991Z,83.33
2023-02-24T12:44:16.817Z,83.12
2023-02-24T12:46:51.599Z,83.38
2023-02-24T12:49:34.362Z,83.53
2023-02-24T12:52:26.730Z,83.24
2023-02-24T12:55:30.653Z,83.65
2023-02-24T12:58:09.968Z,84.11
2023-02-24T13:01:01.884Z,84.15
2023-02-24T13:03:55.331Z,84.36
2023-02-24T13:07:02.851Z,84.38
2023-02-24T13:09:55.006Z,84.82
2023-02-24T13:12:28.702Z,83.72
2023-02-24T13:14:59.887Z,84.54
2023-02-24T13:17:30.680Z,84.78
2023-02-24T13:20:04.211Z,84.90
2023-02-24T13:22:41.034Z,85.29
2023-02-24T13:25:25.785Z,85.29
2023-02-24T13:28:02.185Z,85.24
2023-02-24T13:30:39.435Z,85.00
2023-02-24T13:33:23.232Z,85.57
2023-02-24T13:36:24.061Z,85.68
2023-02-24T13:39:27.022Z,85.61
2023-02-24T13:42:09.128Z,85.39
2023-02-24T13:44:43.775Z,85.72
2023-02-24T13:47:35.612Z,85.74
2023-02-24T13:50:27.919Z,86.22
2023-02-24T13:53:10.730Z,86.00
2023-02-24T13:56:01.785Z,86.00
2023-02-24T13:58:54.998Z,86.10
2023-02-24T14:01:30.910Z,86.03
2023-02-24T14:04:16.905Z,85.99
2023-02-24T14:06:56.206Z,86.34
2023-02-24T14:09:35.302Z,85.91
2023-02-24T14:12:22.546Z,85.70
2023-02-24T14:14:54.218Z,85.41
2023-02-24T14:17:30.633Z,85.15
2023-02-24T14:20:17.288Z,85.70
2023-02-24T14:22:58.037Z,85.57
2023-02-24T14:25:32.503Z,85.25
2023-02-24T14:28:07.464Z,85.07
2023-02-24T14:30:42.154Z,85.24
2023-02-24T14:33:21.585Z,85.54
2023-02-24T14:35:52.481Z,85.33
2023-02-24T14:38:39.203Z,85.39
2023-02-24T14:41:22.683Z,85.13
2023-02-24T14:43:56.867Z,85.70
2023-02-24T14:46:28.455Z,85.74
2023-02-24T14:48:59.093Z,85.35
2023-02-24T14:51:34.741Z,85.36
2023-02-24T14:54:08.304Z,85.58
2023-02-24T14:56:39.026Z,85.92
2023-02-24T14:59:21.698Z,85.57
2023-02-24T15:01:57.683Z,85.66
2023-02-24T15:04:37.570Z,85.90
2023-02-24T15:07:24.749Z,86.19
2023-02-24T15:09:55.797Z,86.58
2023-02-24T15:12:31.796Z,86.09
2023-02-24T15:15:08.413Z,86.02
2023-02-24T15:17:42.806Z,86.23
2023-02-24T15:20:29.402Z,86.23
2023-02-24T15:23:03.561Z,85.99
2023-02-24T15:25:46.479Z,85.94
2023-02-24T15:28:32.785Z,86.05
2023-02-24T15:31:11.493Z,86.42
2023-02-24T15:33:47.303Z,86.27
2023-02-24T15:36:21.463Z,86.35
2023-02-24T15:38:58.037Z,86.12
2023-02-24T15:41:44.956Z,86.02
2023-02-24T15:44:34.151Z,86.02
2023-02-24T15:47:29.067Z,86.27
2023-02-24T15:50:01.639Z,86.56
2023-02-24T15:52:32.368Z,85.85
2023-02-24T15:55:08.453Z,85.83
2023-02-24T15:57:43.501Z,85.84
2023-02-24T16:00:19.092Z,85.82
2023-02-24T16:02:50.120Z,85.88
2023-02-24T16:05:21.538Z,86.00
2023-02-24T16:07:53.822Z,85.48
2023-02-24T16:10:32.953Z,86.12
2023-02-24T16:13:04.009Z,85.77
2023-02-24T16:15:39.897Z,86.02
2023-02-24T16:18:15.311Z,86.20
2023-02-24T16:20:51.949Z,86.60
2023-02-24T16:23:28.158Z,86.42
2023-02-24T16:26:04.308Z,86.45
2023-02-24T16:28:35.068Z,86.21
2023-02-24T16:31:08.346Z,86.05
2023-02-24T16:33:54.033Z,86.17
2023-02-24T16:36:18.330Z,86.04
2023-02-24T16:38:51.517Z,86.26
2023-02-24T16:41:22.903Z,86.16
2023-02-24T16:43:53.577Z,86.20
2023-02-24T16:46:30.029Z,85.99
2023-02-24T16:49:00.777Z,85.91
2023-02-24T16:51:34.185Z,85.99
2023-02-24T16:54:04.820Z,85.79
2023-02-24T16:56:38.403Z,86.03
2023-02-24T16:59:09.071Z,85.57
2023-02-24T17:01:45.653Z,85.89
2023-02-24T17:04:20.611Z,86.24
2023-02-24T17:06:52.529Z,86.14
2023-02-24T17:09:23.779Z,86.40
2023-02-24T17:11:55.269Z,86.48
2023-02-24T17:14:31.814Z,86.27
2023-02-24T17:17:02.418Z,85.98
2023-02-24T17:19:35.210Z,86.35
2023-02-24T17:22:06.131Z,86.00
2023-02-24T17:24:36.901Z,86.14
2023-02-24T17:27:08.056Z,85.99
2023-02-24T17:29:51.126Z,86.03
2023-02-24T17:32:27.757Z,85.79
2023-02-24T17:35:00.742Z,85.75
2023-02-24T17:37:32.560Z,85.99
2023-02-24T17:40:05.563Z,86.03
2023-02-24T17:42:37.417Z,85.75
2023-02-24T17:45:10.034Z,85.76
2023-02-24T17:47:41.375Z,85.67
2023-02-24T17:50:15.016Z,85.82
2023-02-24T17:52:47.281Z,85.95
2023-02-24T17:55:22.026Z,85.73
2023-02-24T17:57:57.104Z,85.93
2023-02-24T18:00:27.621Z,85.87
2023-02-24T18:02:58.300Z,85.87
2023-02-24T18:05:29.866Z,85.79
2023-02-24T18:08:22.934Z,85.73
2023-02-24T18:11:01.875Z,85.47
2023-02-24T18:13:33.752Z,85.53
2023-02-24T18:16:13.224Z,85.52
2023-02-24T18:18:44.730Z,85.39
2023-02-24T18:21:16.463Z,85.61
2023-02-24T18:23:51.722Z,85.73
2023-02-24T18:26:28.158Z,85.31
2023-02-24T18:28:59.437Z,85.34
2023-02-24T18:31:33.044Z,85.46
2023-02-24T18:34:06.862Z,85.41
2023-02-24T18:36:38.104Z,85.90
2023-02-24T18:39:11.898Z,85.38
2023-02-24T18:41:42.982Z,85.52
2023-02-24T18:44:15.218Z,85.24
2023-02-24T18:46:45.868Z,85.43
2023-02-24T18:49:18.564Z,85.32
2023-02-24T18:51:51.721Z,85.15
2023-02-24T18:54:26.150Z,85.17
2023-02-24T18:56:57.854Z,85.17
2023-02-24T18:59:28.502Z,85.32
2023-02-24T19:02:06.444Z,85.24
2023-02-24T19:04:40.767Z,85.45
2023-02-24T19:07:12.922Z,85.34
2023-02-24T19:09:46.521Z,85.11
2023-02-24T19:12:21.115Z,85.36
2023-02-24T19:14:57.957Z,85.52
2023-02-24T19:17:29.304Z,85.23
2023-02-24T19:19:59.858Z,85.05
2023-02-24T19:22:30.840Z,85.06
2023-02-24T19:25:03.166Z,85.00
2023-02-24T19:27:36.288Z,84.94
2023-02-24T19:30:08.118Z,85.00
2023-02-24T19:32:38.804Z,84.73
2023-02-24T19:35:10.985Z,84.68
2023-02-24T19:37:42.916Z,85.07
2023-02-24T19:40:25.835Z,86.03
2023-02-24T19:42:57.179Z,85.91
2023-02-24T19:45:30.069Z,86.24
2023-02-24T19:48:01.177Z,86.42
2023-02-24T19:50:32.390Z,86.30
2023-02-24T19:53:06.244Z,86.51
2023-02-24T19:55:36.865Z,86.50
2023-02-24T19:58:08.049Z,86.70
2023-02-24T20:00:39.478Z,87.07
2023-02-24T20:03:18.521Z,86.52
2023-02-24T20:05:50.762Z,86.44
2023-02-24T20:08:22.223Z,86.24
2023-02-24T20:11:02.400Z,86.76
2023-02-24T20:13:33.738Z,86.92
2023-02-24T20:16:13.875Z,86.48
2023-02-24T20:18:44.729Z,86.57
2023-02-24T20:21:16.877Z,86.67
2023-02-24T20:23:48.485Z,86.81
2023-02-24T20:26:21.376Z,86.51
2023-02-24T20:28:53.832Z,86.36
2023-02-24T20:31:26.555Z,87.01
2023-02-24T20:34:00.052Z,86.77
2023-02-24T20:36:32.270Z,86.95
2023-02-24T20:39:06.204Z,87.17
2023-02-24T20:41:37.019Z,87.59
2023-02-24T20:44:10.433Z,87.87
2023-02-24T20:46:42.035Z,87.57
2023-02-24T20:49:17.009Z,87.79
2023-02-24T20:51:48.858Z,87.91
2023-02-24T20:54:20.916Z,88.01
2023-02-24T20:56:51.478Z,87.90
2023-02-24T20:59:23.092Z,87.96
2023-02-24T21:01:55.062Z,88.09
2023-02-24T21:04:27.501Z,88.50
2023-02-24T21:06:58.693Z,88.42
2023-02-24T21:09:34.147Z,88.48
2023-02-24T21:12:05.881Z,88.68
2023-02-24T21:14:40.646Z,88.71
2023-02-24T21:17:15.950Z,88.70
2023-02-24T21:19:46.514Z,88.47
2023-02-24T21:22:17.810Z,88.36
2023-02-24T21:24:49.641Z,88.20
2023-02-24T21:27:22.152Z,88.05
2023-02-24T21:29:55.124Z,88.16
2023-02-24T21:32:30.174Z,88.16
2023-02-24T21:35:01.747Z,87.97
2023-02-24T21:37:34.858Z,87.99
2023-02-24T21:40:08.052Z,87.91
2023-02-24T21:42:43.246Z,87.86
2023-02-24T21:45:14.815Z,87.51
2023-02-24T21:47:46.806Z,87.42
2023-02-24T21:50:19.725Z,87.39
2023-02-24T21:52:55.513Z,87.28
2023-02-24T21:55:26.549Z,87.30
2023-02-24T21:57:57.017Z,87.05
2023-02-24T22:00:28.745Z,86.96
2023-02-24T22:02:59.461Z,86.86
2023-02-24T22:05:30.276Z,86.91
2023-02-24T22:08:02.482Z,87.11
2023-02-24T22:10:33.348Z,87.22
2023-02-24T22:13:05.439Z,87.29
2023-02-24T22:15:37.424Z,87.05
2023-02-24T22:18:09.968Z,87.15
2023-02-24T22:20:40.954Z,87.19
2023-02-24T22:23:12.898Z,87.46
2023-02-24T22:25:45.786Z,87.67
2023-02-24T22:28:18.344Z,87.61
2023-02-24T22:30:58.707Z,87.58
2023-02-24T22:33:32.202Z,87.91
2023-02-24T22:36:08.545Z,87.79
2023-02-24T22:38:42.366Z,87.54
2023-02-24T22:41:20.353Z,87.88
2023-02-24T22:43:54.431Z,87.58
2023-02-24T22:46:28.923Z,87.53
2023-02-24T22:49:00.203Z,87.45
2023-02-24T22:51:32.006Z,87.02
2023-02-24T22:54:06.454Z,88.73
2023-02-24T22:56:38.022Z,84.43
2023-02-24T22:59:11.932Z,82.15
2023-02-24T23:01:43.839Z,83.49
2023-02-24T23:04:19.967Z,84.98
2023-02-24T23:06:51.524Z,85.47
2023-02-24T23:09:24.788Z,85.68
2023-02-24T23:11:55.206Z,86.15
2023-02-24T23:14:26.874Z,85.96
2023-02-24T23:16:58.984Z,85.96
2023-02-24T23:19:29.821Z,85.70
2023-02-24T23:22:00.376Z,85.29
2023-02-24T23:24:31.204Z,84.97
2023-02-24T23:27:01.850Z,84.87
2023-02-24T23:29:33.398Z,85.06
2023-02-24T23:32:04.423Z,85.07
2023-02-24T23:34:35.718Z,85.19
2023-02-24T23:37:09.178Z,85.63
2023-02-24T23:39:39.872Z,86.01
2023-02-24T23:42:10.823Z,85.69
2023-02-24T23:44:41.642Z,85.68
2023-02-24T23:47:13.185Z,86.46
2023-02-24T23:49:48.405Z,86.23
2023-02-24T23:52:18.140Z,86.11
2023-02-24T23:54:51.225Z,86.46
2023-02-24T23:57:22.867Z,86.88
2023-02-24T23:59:53.548Z,87.11
